sensor_id;sensor_type;location;lat;lon;timestamp;pressure;altitude;pressure_sealevel;temperature;humidity
38466;BME280;24244;51.950;5.902;2024-01-25T00:00:54;102624.59;;;8.98;82.96
38466;BME280;24244;51.950;5.902;2024-01-25T00:03:21;102621.94;;;8.98;82.94
38466;BME280;24244;51.950;5.902;2024-01-25T00:05:48;102622.22;;;8.95;82.94
38466;BME280;24244;51.950;5.902;2024-01-25T00:08:16;102633.66;;;8.95;82.71
38466;BME280;24244;51.950;5.902;2024-01-25T00:10:43;102634.66;;;8.94;82.97
38466;BME280;24244;51.950;5.902;2024-01-25T00:13:10;102635.72;;;8.92;82.66
38466;BME280;24244;51.950;5.902;2024-01-25T00:15:38;102643.81;;;8.90;82.64
38466;BME280;24244;51.950;5.902;2024-01-25T00:18:05;102638.78;;;8.87;82.66
38466;BME280;24244;51.950;5.902;2024-01-25T00:20:32;102644.22;;;8.86;82.94
38466;BME280;24244;51.950;5.902;2024-01-25T00:22:59;102641.94;;;8.81;82.78
38466;BME280;24244;51.950;5.902;2024-01-25T00:25:26;102645.69;;;8.79;82.68
38466;BME280;24244;51.950;5.902;2024-01-25T00:27:52;102647.75;;;8.75;82.79
38466;BME280;24244;51.950;5.902;2024-01-25T00:30:19;102646.34;;;8.71;82.71
38466;BME280;24244;51.950;5.902;2024-01-25T00:32:48;102642.97;;;8.69;82.83
38466;BME280;24244;51.950;5.902;2024-01-25T00:35:15;102642.38;;;8.66;83.01
38466;BME280;24244;51.950;5.902;2024-01-25T00:37:43;102650.69;;;8.61;82.88
38466;BME280;24244;51.950;5.902;2024-01-25T00:40:10;102647.59;;;8.56;82.78
38466;BME280;24244;51.950;5.902;2024-01-25T00:42:42;102648.94;;;8.50;82.76
38466;BME280;24244;51.950;5.902;2024-01-25T00:45:11;102649.31;;;8.46;83.05
38466;BME280;24244;51.950;5.902;2024-01-25T00:47:38;102655.84;;;8.42;83.23
38466;BME280;24244;51.950;5.902;2024-01-25T00:50:07;102654.44;;;8.38;82.87
38466;BME280;24244;51.950;5.902;2024-01-25T00:52:35;102656.59;;;8.33;82.97
38466;BME280;24244;51.950;5.902;2024-01-25T00:55:03;102660.56;;;8.27;82.83
38466;BME280;24244;51.950;5.902;2024-01-25T00:57:31;102669.56;;;8.24;83.22
38466;BME280;24244;51.950;5.902;2024-01-25T00:59:58;102662.00;;;8.20;83.03
38466;BME280;24244;51.950;5.902;2024-01-25T01:02:26;102663.34;;;8.14;82.78
38466;BME280;24244;51.950;5.902;2024-01-25T01:04:57;102654.94;;;8.09;83.20
38466;BME280;24244;51.950;5.902;2024-01-25T01:07:27;102660.38;;;8.08;83.27
38466;BME280;24244;51.950;5.902;2024-01-25T01:09:54;102658.22;;;8.02;82.91
38466;BME280;24244;51.950;5.902;2024-01-25T01:12:21;102675.41;;;7.96;83.27
38466;BME280;24244;51.950;5.902;2024-01-25T01:14:48;102683.50;;;7.95;83.03
38466;BME280;24244;51.950;5.902;2024-01-25T01:17:15;102669.66;;;7.91;83.18
38466;BME280;24244;51.950;5.902;2024-01-25T01:19:42;102674.34;;;7.88;83.09
38466;BME280;24244;51.950;5.902;2024-01-25T01:22:10;102683.38;;;7.85;82.96
38466;BME280;24244;51.950;5.902;2024-01-25T01:24:38;102686.50;;;7.79;82.98
38466;BME280;24244;51.950;5.902;2024-01-25T01:27:05;102683.41;;;7.74;83.10
38466;BME280;24244;51.950;5.902;2024-01-25T01:29:32;102684.56;;;7.70;83.26
38466;BME280;24244;51.950;5.902;2024-01-25T01:31:58;102700.72;;;7.67;83.36
38466;BME280;24244;51.950;5.902;2024-01-25T01:34:25;102700.81;;;7.65;83.19
38466;BME280;24244;51.950;5.902;2024-01-25T01:36:52;102702.75;;;7.63;83.05
38466;BME280;24244;51.950;5.902;2024-01-25T01:39:19;102706.72;;;7.58;83.17
38466;BME280;24244;51.950;5.902;2024-01-25T01:41:48;102710.31;;;7.57;83.40
38466;BME280;24244;51.950;5.902;2024-01-25T01:44:15;102706.94;;;7.55;83.31
38466;BME280;24244;51.950;5.902;2024-01-25T01:46:42;102708.88;;;7.53;83.42
38466;BME280;24244;51.950;5.902;2024-01-25T01:49:11;102711.63;;;7.51;83.16
38466;BME280;24244;51.950;5.902;2024-01-25T01:51:41;102721.72;;;7.46;83.06
38466;BME280;24244;51.950;5.902;2024-01-25T01:54:11;102726.41;;;7.42;83.04
38466;BME280;24244;51.950;5.902;2024-01-25T01:56:38;102721.47;;;7.38;83.31
38466;BME280;24244;51.950;5.902;2024-01-25T01:59:09;102734.72;;;7.38;83.15
38466;BME280;24244;51.950;5.902;2024-01-25T02:01:37;102731.44;;;7.34;83.31
38466;BME280;24244;51.950;5.902;2024-01-25T02:04:04;102736.00;;;7.32;83.39
38466;BME280;24244;51.950;5.902;2024-01-25T02:06:32;102731.91;;;7.28;83.08
38466;BME280;24244;51.950;5.902;2024-01-25T02:08:59;102738.53;;;7.23;83.18
38466;BME280;24244;51.950;5.902;2024-01-25T02:11:26;102738.63;;;7.21;83.71
38466;BME280;24244;51.950;5.902;2024-01-25T02:13:53;102738.13;;;7.16;83.26
38466;BME280;24244;51.950;5.902;2024-01-25T02:16:22;102741.84;;;7.14;83.51
38466;BME280;24244;51.950;5.902;2024-01-25T02:18:49;102749.19;;;7.10;83.37
38466;BME280;24244;51.950;5.902;2024-01-25T02:21:16;102741.34;;;7.08;83.64
38466;BME280;24244;51.950;5.902;2024-01-25T02:23:45;102744.97;;;7.07;83.44
38466;BME280;24244;51.950;5.902;2024-01-25T02:26:12;102746.03;;;7.05;83.50
38466;BME280;24244;51.950;5.902;2024-01-25T02:28:38;102743.38;;;7.05;83.53
38466;BME280;24244;51.950;5.902;2024-01-25T02:31:05;102740.03;;;7.03;83.44
38466;BME280;24244;51.950;5.902;2024-01-25T02:33:33;102749.88;;;7.01;83.35
38466;BME280;24244;51.950;5.902;2024-01-25T02:36:00;102746.72;;;6.96;83.34
38466;BME280;24244;51.950;5.902;2024-01-25T02:38:26;102747.88;;;6.92;83.64
38466;BME280;24244;51.950;5.902;2024-01-25T02:40:55;102755.22;;;6.88;83.30
38466;BME280;24244;51.950;5.902;2024-01-25T02:43:22;102756.28;;;6.86;83.39
38466;BME280;24244;51.950;5.902;2024-01-25T02:45:49;102754.69;;;6.83;83.42
38466;BME280;24244;51.950;5.902;2024-01-25T02:48:17;102747.13;;;6.79;83.49
38466;BME280;24244;51.950;5.902;2024-01-25T02:50:44;102751.75;;;6.75;83.62
38466;BME280;24244;51.950;5.902;2024-01-25T02:53:11;102754.53;;;6.74;83.72
38466;BME280;24244;51.950;5.902;2024-01-25T02:55:38;102759.31;;;6.68;83.56
38466;BME280;24244;51.950;5.902;2024-01-25T02:58:06;102759.53;;;6.65;83.37
38466;BME280;24244;51.950;5.902;2024-01-25T03:00:33;102761.44;;;6.63;83.65
38466;BME280;24244;51.950;5.902;2024-01-25T03:03:00;102767.78;;;6.61;83.65
38466;BME280;24244;51.950;5.902;2024-01-25T03:05:27;102766.22;;;6.58;83.61
38466;BME280;24244;51.950;5.902;2024-01-25T03:07:54;102765.47;;;6.56;83.54
38466;BME280;24244;51.950;5.902;2024-01-25T03:10:21;102764.75;;;6.54;83.47
38466;BME280;24244;51.950;5.902;2024-01-25T03:12:48;102762.25;;;6.53;83.97
38466;BME280;24244;51.950;5.902;2024-01-25T03:15:17;102756.81;;;6.54;83.74
38466;BME280;24244;51.950;5.902;2024-01-25T03:17:44;102757.81;;;6.53;83.83
38466;BME280;24244;51.950;5.902;2024-01-25T03:20:11;102749.03;;;6.53;83.62
38466;BME280;24244;51.950;5.902;2024-01-25T03:22:38;102741.22;;;6.51;83.70
38466;BME280;24244;51.950;5.902;2024-01-25T03:25:06;102736.66;;;6.53;83.81
38466;BME280;24244;51.950;5.902;2024-01-25T03:27:33;102734.22;;;6.50;83.49
38466;BME280;24244;51.950;5.902;2024-01-25T03:30:00;102739.63;;;6.49;83.51
38466;BME280;24244;51.950;5.902;2024-01-25T03:32:28;102748.63;;;6.46;83.47
38466;BME280;24244;51.950;5.902;2024-01-25T03:34:58;102749.69;;;6.44;83.73
38466;BME280;24244;51.950;5.902;2024-01-25T03:37:25;102753.28;;;6.43;83.71
38466;BME280;24244;51.950;5.902;2024-01-25T03:39:52;102753.47;;;6.40;83.56
38466;BME280;24244;51.950;5.902;2024-01-25T03:42:19;102755.50;;;6.36;83.66
38466;BME280;24244;51.950;5.902;2024-01-25T03:44:46;102760.06;;;6.34;84.06
38466;BME280;24244;51.950;5.902;2024-01-25T03:47:13;102759.44;;;6.31;83.68
38466;BME280;24244;51.950;5.902;2024-01-25T03:49:42;102765.03;;;6.26;83.56
38466;BME280;24244;51.950;5.902;2024-01-25T03:52:09;102765.28;;;6.23;83.77
38466;BME280;24244;51.950;5.902;2024-01-25T03:54:35;102763.69;;;6.20;83.92
38466;BME280;24244;51.950;5.902;2024-01-25T03:57:03;102774.56;;;6.16;84.13
38466;BME280;24244;51.950;5.902;2024-01-25T03:59:30;102771.28;;;6.12;83.80
38466;BME280;24244;51.950;5.902;2024-01-25T04:01:57;102761.81;;;6.10;83.85
38466;BME280;24244;51.950;5.902;2024-01-25T04:04:23;102759.47;;;6.05;83.90
38466;BME280;24244;51.950;5.902;2024-01-25T04:06:52;102756.97;;;6.04;83.99
38466;BME280;24244;51.950;5.902;2024-01-25T04:09:19;102760.75;;;6.00;84.07
38466;BME280;24244;51.950;5.902;2024-01-25T04:11:46;102761.59;;;6.00;84.50
38466;BME280;24244;51.950;5.902;2024-01-25T04:14:13;102764.16;;;6.02;84.06
38466;BME280;24244;51.950;5.902;2024-01-25T04:16:40;102766.03;;;6.00;83.78
38466;BME280;24244;51.950;5.902;2024-01-25T04:19:07;102759.06;;;5.99;83.76
38466;BME280;24244;51.950;5.902;2024-01-25T04:21:37;102763.63;;;5.97;83.91
38466;BME280;24244;51.950;5.902;2024-01-25T04:24:06;102764.44;;;5.97;84.12
38466;BME280;24244;51.950;5.902;2024-01-25T04:26:33;102769.84;;;5.96;83.85
38466;BME280;24244;51.950;5.902;2024-01-25T04:28:59;102766.38;;;5.95;83.89
38466;BME280;24244;51.950;5.902;2024-01-25T04:31:26;102766.47;;;5.94;83.79
38466;BME280;24244;51.950;5.902;2024-01-25T04:33:54;102770.06;;;5.93;83.64
38466;BME280;24244;51.950;5.902;2024-01-25T04:36:22;102774.59;;;5.90;83.93
38466;BME280;24244;51.950;5.902;2024-01-25T04:38:49;102773.75;;;5.90;84.00
38466;BME280;24244;51.950;5.902;2024-01-25T04:41:17;102772.19;;;5.87;83.77
38466;BME280;24244;51.950;5.902;2024-01-25T04:43:44;102770.66;;;5.83;83.85
38466;BME280;24244;51.950;5.902;2024-01-25T04:46:11;102782.28;;;5.81;83.99
38466;BME280;24244;51.950;5.902;2024-01-25T04:48:38;102788.69;;;5.77;83.75
38466;BME280;24244;51.950;5.902;2024-01-25T04:51:06;102781.88;;;5.74;83.75
38466;BME280;24244;51.950;5.902;2024-01-25T04:53:33;102775.84;;;5.72;83.96
38466;BME280;24244;51.950;5.902;2024-01-25T04:56:00;102774.25;;;5.70;84.10
38466;BME280;24244;51.950;5.902;2024-01-25T04:58:30;102779.66;;;5.68;83.91
38466;BME280;24244;51.950;5.902;2024-01-25T05:00:56;102784.19;;;5.66;83.98
38466;BME280;24244;51.950;5.902;2024-01-25T05:03:23;102778.25;;;5.63;84.16
38466;BME280;24244;51.950;5.902;2024-01-25T05:05:50;102778.38;;;5.61;84.20
38466;BME280;24244;51.950;5.902;2024-01-25T05:08:17;102776.88;;;5.57;84.12
38466;BME280;24244;51.950;5.902;2024-01-25T05:10:44;102776.13;;;5.55;84.03
38466;BME280;24244;51.950;5.902;2024-01-25T05:15:42;102774.66;;;5.51;84.12
38466;BME280;24244;51.950;5.902;2024-01-25T05:18:09;102780.03;;;5.49;83.96
38466;BME280;24244;51.950;5.902;2024-01-25T05:20:37;102776.66;;;5.47;84.15
38466;BME280;24244;51.950;5.902;2024-01-25T05:23:04;102781.19;;;5.45;84.02
38466;BME280;24244;51.950;5.902;2024-01-25T05:25:32;102779.69;;;5.41;84.16
38466;BME280;24244;51.950;5.902;2024-01-25T05:27:59;102782.56;;;5.38;83.78
38466;BME280;24244;51.950;5.902;2024-01-25T05:30:27;102797.00;;;5.33;84.23
38466;BME280;24244;51.950;5.902;2024-01-25T05:32:55;102800.03;;;5.27;84.09
38466;BME280;24244;51.950;5.902;2024-01-25T05:35:22;102796.75;;;5.23;84.27
38466;BME280;24244;51.950;5.902;2024-01-25T05:37:51;102795.16;;;5.21;84.47
38466;BME280;24244;51.950;5.902;2024-01-25T05:40:18;102796.97;;;5.20;84.30
38466;BME280;24244;51.950;5.902;2024-01-25T05:42:45;102798.03;;;5.18;84.34
38466;BME280;24244;51.950;5.902;2024-01-25T05:45:12;102804.34;;;5.15;84.53
38466;BME280;24244;51.950;5.902;2024-01-25T05:47:40;102802.72;;;5.12;84.08
38466;BME280;24244;51.950;5.902;2024-01-25T05:50:09;102806.22;;;5.13;84.31
38466;BME280;24244;51.950;5.902;2024-01-25T05:52:36;102798.41;;;5.11;84.10
38466;BME280;24244;51.950;5.902;2024-01-25T05:55:04;102803.66;;;5.11;84.68
38466;BME280;24244;51.950;5.902;2024-01-25T05:57:32;102805.59;;;5.09;84.32
38466;BME280;24244;51.950;5.902;2024-01-25T05:59:59;102816.31;;;5.06;84.36
38466;BME280;24244;51.950;5.902;2024-01-25T06:02:26;102824.22;;;5.06;84.23
38466;BME280;24244;51.950;5.902;2024-01-25T06:04:53;102818.19;;;5.04;84.01
38466;BME280;24244;51.950;5.902;2024-01-25T06:07:22;102811.44;;;5.00;84.26
38466;BME280;24244;51.950;5.902;2024-01-25T06:09:49;102808.91;;;4.99;84.48
38466;BME280;24244;51.950;5.902;2024-01-25T06:12:16;102809.13;;;4.96;84.22
38466;BME280;24244;51.950;5.902;2024-01-25T06:14:43;102817.31;;;4.91;84.42
38466;BME280;24244;51.950;5.902;2024-01-25T06:17:10;102817.53;;;4.88;84.37
38466;BME280;24244;51.950;5.902;2024-01-25T06:19:37;102823.06;;;4.84;84.14
38466;BME280;24244;51.950;5.902;2024-01-25T06:22:04;102829.19;;;4.84;84.35
38466;BME280;24244;51.950;5.902;2024-01-25T06:24:33;102828.25;;;4.85;84.50
38466;BME280;24244;51.950;5.902;2024-01-25T06:27:00;102839.53;;;4.87;84.37
38466;BME280;24244;51.950;5.902;2024-01-25T06:29:27;102836.16;;;4.85;84.13
38466;BME280;24244;51.950;5.902;2024-01-25T06:31:53;102837.31;;;4.81;84.07
38466;BME280;24244;51.950;5.902;2024-01-25T06:34:20;102840.13;;;4.78;84.15
38466;BME280;24244;51.950;5.902;2024-01-25T06:36:47;102840.41;;;4.73;84.25
38466;BME280;24244;51.950;5.902;2024-01-25T06:39:14;102846.72;;;4.71;84.35
38466;BME280;24244;51.950;5.902;2024-01-25T06:41:42;102853.78;;;4.70;84.43
38466;BME280;24244;51.950;5.902;2024-01-25T06:44:10;102849.56;;;4.68;84.30
38466;BME280;24244;51.950;5.902;2024-01-25T06:46:37;102847.97;;;4.65;84.28
38466;BME280;24244;51.950;5.902;2024-01-25T06:49:04;102836.47;;;4.66;84.40
38466;BME280;24244;51.950;5.902;2024-01-25T06:51:31;102847.97;;;4.65;84.24
38466;BME280;24244;51.950;5.902;2024-01-25T06:53:59;102846.56;;;4.60;84.32
38466;BME280;24244;51.950;5.902;2024-01-25T06:56:26;102845.03;;;4.56;84.19
38466;BME280;24244;51.950;5.902;2024-01-25T06:58:54;102855.69;;;4.54;84.44
38466;BME280;24244;51.950;5.902;2024-01-25T07:01:22;102853.34;;;4.50;84.36
38466;BME280;24244;51.950;5.902;2024-01-25T07:03:50;102849.94;;;4.48;84.42
38466;BME280;24244;51.950;5.902;2024-01-25T07:06:18;102849.94;;;4.48;84.28
38466;BME280;24244;51.950;5.902;2024-01-25T07:08:46;102845.53;;;4.48;84.29
38466;BME280;24244;51.950;5.902;2024-01-25T07:11:13;102844.03;;;4.44;84.41
38466;BME280;24244;51.950;5.902;2024-01-25T07:13:40;102845.06;;;4.42;84.24
38466;BME280;24244;51.950;5.902;2024-01-25T07:16:09;102832.94;;;4.39;84.31
38466;BME280;24244;51.950;5.902;2024-01-25T07:18:36;102828.63;;;4.38;84.70
38466;BME280;24244;51.950;5.902;2024-01-25T07:21:04;102830.31;;;4.39;84.65
38466;BME280;24244;51.950;5.902;2024-01-25T07:23:32;102825.59;;;4.44;84.59
38466;BME280;24244;51.950;5.902;2024-01-25T07:25:59;102825.50;;;4.46;84.40
38466;BME280;24244;51.950;5.902;2024-01-25T07:28:26;102828.16;;;4.46;84.38
38466;BME280;24244;51.950;5.902;2024-01-25T07:30:53;102837.28;;;4.40;84.25
38466;BME280;24244;51.950;5.902;2024-01-25T07:33:22;102843.56;;;4.38;84.51
38466;BME280;24244;51.950;5.902;2024-01-25T07:35:49;102854.19;;;4.36;84.58
38466;BME280;24244;51.950;5.902;2024-01-25T07:38:16;102854.94;;;4.38;84.39
38466;BME280;24244;51.950;5.902;2024-01-25T07:40:44;102861.06;;;4.39;84.60
38466;BME280;24244;51.950;5.902;2024-01-25T07:43:10;102856.53;;;4.41;84.65
38466;BME280;24244;51.950;5.902;2024-01-25T07:45:37;102859.84;;;4.44;84.77
38466;BME280;24244;51.950;5.902;2024-01-25T07:48:07;102859.66;;;4.47;84.54
38466;BME280;24244;51.950;5.902;2024-01-25T07:50:42;102863.88;;;4.50;84.64
38466;BME280;24244;51.950;5.902;2024-01-25T07:53:10;102854.28;;;4.49;84.52
38466;BME280;24244;51.950;5.902;2024-01-25T07:55:38;102853.53;;;4.47;84.26
38466;BME280;24244;51.950;5.902;2024-01-25T07:58:06;102860.59;;;4.46;84.42
38466;BME280;24244;51.950;5.902;2024-01-25T08:00:33;102854.47;;;4.46;84.43
38466;BME280;24244;51.950;5.902;2024-01-25T08:03:00;102862.28;;;4.47;84.66
38466;BME280;24244;51.950;5.902;2024-01-25T08:05:27;102860.38;;;4.49;84.62
38466;BME280;24244;51.950;5.902;2024-01-25T08:08:11;102857.56;;;4.52;84.76
38466;BME280;24244;51.950;5.902;2024-01-25T08:10:38;102866.41;;;4.51;84.42
38466;BME280;24244;51.950;5.902;2024-01-25T08:13:05;102862.06;;;4.50;84.47
38466;BME280;24244;51.950;5.902;2024-01-25T08:15:33;102861.22;;;4.50;84.63
38466;BME280;24244;51.950;5.902;2024-01-25T08:18:01;102851.53;;;4.50;84.90
38466;BME280;24244;51.950;5.902;2024-01-25T08:20:28;102854.28;;;4.49;84.83
38466;BME280;24244;51.950;5.902;2024-01-25T08:22:56;102855.78;;;4.53;84.98
38466;BME280;24244;51.950;5.902;2024-01-25T08:25:24;102865.25;;;4.55;85.11
38466;BME280;24244;51.950;5.902;2024-01-25T08:27:52;102868.56;;;4.59;84.77
38466;BME280;24244;51.950;5.902;2024-01-25T08:30:19;102873.53;;;4.63;85.17
38466;BME280;24244;51.950;5.902;2024-01-25T08:32:46;102882.13;;;4.67;84.81
38466;BME280;24244;51.950;5.902;2024-01-25T08:35:13;102882.66;;;4.72;84.87
38466;BME280;24244;51.950;5.902;2024-01-25T08:37:40;102874.66;;;4.73;84.93
38466;BME280;24244;51.950;5.902;2024-01-25T08:40:08;102871.81;;;4.77;84.61
38466;BME280;24244;51.950;5.902;2024-01-25T08:42:38;102880.69;;;4.76;84.86
38466;BME280;24244;51.950;5.902;2024-01-25T08:45:06;102884.16;;;4.76;84.93
38466;BME280;24244;51.950;5.902;2024-01-25T08:47:35;102884.91;;;4.78;85.07
38466;BME280;24244;51.950;5.902;2024-01-25T08:50:03;102881.34;;;4.79;84.94
38466;BME280;24244;51.950;5.902;2024-01-25T08:52:37;102890.00;;;4.81;85.20
38466;BME280;24244;51.950;5.902;2024-01-25T08:55:04;102889.91;;;4.83;85.19
38466;BME280;24244;51.950;5.902;2024-01-25T08:57:31;102901.94;;;4.87;85.36
38466;BME280;24244;51.950;5.902;2024-01-25T09:00:00;102902.47;;;4.92;85.47
38466;BME280;24244;51.950;5.902;2024-01-25T09:02:30;102904.94;;;4.95;85.32
38466;BME280;24244;51.950;5.902;2024-01-25T09:04:59;102899.44;;;4.98;85.10
38466;BME280;24244;51.950;5.902;2024-01-25T09:07:27;102882.78;;;4.97;85.17
38466;BME280;24244;51.950;5.902;2024-01-25T09:09:54;102885.34;;;4.99;85.16
38466;BME280;24244;51.950;5.902;2024-01-25T09:12:21;102899.91;;;5.04;85.56
38466;BME280;24244;51.950;5.902;2024-01-25T09:14:49;102904.81;;;5.10;85.50
38466;BME280;24244;51.950;5.902;2024-01-25T09:17:25;102896.59;;;5.15;85.64
38466;BME280;24244;51.950;5.902;2024-01-25T09:19:52;102897.13;;;5.20;85.67
38466;BME280;24244;51.950;5.902;2024-01-25T09:22:20;102894.09;;;5.26;85.39
38466;BME280;24244;51.950;5.902;2024-01-25T09:24:48;102887.69;;;5.30;85.42
38466;BME280;24244;51.950;5.902;2024-01-25T09:27:15;102870.72;;;5.34;85.36
38466;BME280;24244;51.950;5.902;2024-01-25T09:29:42;102869.59;;;5.38;85.63
38466;BME280;24244;51.950;5.902;2024-01-25T09:32:10;102888.59;;;5.43;85.75
38466;BME280;24244;51.950;5.902;2024-01-25T09:34:39;102896.19;;;5.48;85.37
38466;BME280;24244;51.950;5.902;2024-01-25T09:37:07;102902.22;;;5.50;85.59
38466;BME280;24244;51.950;5.902;2024-01-25T09:39:35;102906.34;;;5.54;85.48
38466;BME280;24244;51.950;5.902;2024-01-25T09:42:03;102895.59;;;5.57;85.53
38466;BME280;24244;51.950;5.902;2024-01-25T09:44:33;102903.09;;;5.63;85.61
38466;BME280;24244;51.950;5.902;2024-01-25T09:47:08;102902.81;;;5.68;85.64
38466;BME280;24244;51.950;5.902;2024-01-25T09:49:36;102913.03;;;5.72;85.55
38466;BME280;24244;51.950;5.902;2024-01-25T09:52:12;102901.31;;;5.76;85.58
38466;BME280;24244;51.950;5.902;2024-01-25T09:54:42;102887.00;;;5.80;85.79
38466;BME280;24244;51.950;5.902;2024-01-25T09:57:14;102881.41;;;5.85;85.40
38466;BME280;24244;51.950;5.902;2024-01-25T09:59:47;102886.50;;;5.88;85.47
38466;BME280;24244;51.950;5.902;2024-01-25T10:02:14;102885.34;;;5.92;85.36
38466;BME280;24244;51.950;5.902;2024-01-25T10:04:42;102889.47;;;5.96;85.60
38466;BME280;24244;51.950;5.902;2024-01-25T10:07:40;102879.53;;;6.00;85.56
38466;BME280;24244;51.950;5.902;2024-01-25T10:10:13;102872.16;;;6.05;85.55
38466;BME280;24244;51.950;5.902;2024-01-25T10:12:43;102868.47;;;6.07;85.52
38466;BME280;24244;51.950;5.902;2024-01-25T10:15:11;102871.63;;;6.12;85.37
38466;BME280;24244;51.950;5.902;2024-01-25T10:17:38;102871.31;;;6.17;85.57
38466;BME280;24244;51.950;5.902;2024-01-25T10:20:25;102852.59;;;6.20;85.45
38466;BME280;24244;51.950;5.902;2024-01-25T10:22:59;102835.63;;;6.24;85.58
38466;BME280;24244;51.950;5.902;2024-01-25T10:25:33;102845.84;;;6.28;85.50
38466;BME280;24244;51.950;5.902;2024-01-25T10:28:01;102845.53;;;6.33;85.44
38466;BME280;24244;51.950;5.902;2024-01-25T10:30:31;102844.38;;;6.37;85.27
38466;BME280;24244;51.950;5.902;2024-01-25T10:33:00;102843.19;;;6.41;85.80
38466;BME280;24244;51.950;5.902;2024-01-25T10:35:28;102857.88;;;6.45;85.42
38466;BME280;24244;51.950;5.902;2024-01-25T10:37:56;102857.66;;;6.48;85.33
38466;BME280;24244;51.950;5.902;2024-01-25T10:40:26;102857.34;;;6.53;85.45
38466;BME280;24244;51.950;5.902;2024-01-25T10:42:54;102852.56;;;6.58;85.56
38466;BME280;24244;51.950;5.902;2024-01-25T10:45:21;102842.63;;;6.61;85.48
38466;BME280;24244;51.950;5.902;2024-01-25T10:47:48;102852.03;;;6.65;85.50
38466;BME280;24244;51.950;5.902;2024-01-25T10:50:16;102859.72;;;6.68;85.35
38466;BME280;24244;51.950;5.902;2024-01-25T10:52:44;102847.03;;;6.74;85.41
38466;BME280;24244;51.950;5.902;2024-01-25T10:55:13;102846.69;;;6.78;85.62
38466;BME280;24244;51.950;5.902;2024-01-25T10:57:44;102834.94;;;6.82;85.26
38466;BME280;24244;51.950;5.902;2024-01-25T11:00:13;102827.53;;;6.87;85.48
38466;BME280;24244;51.950;5.902;2024-01-25T11:02:42;102823.72;;;6.91;85.55
38466;BME280;24244;51.950;5.902;2024-01-25T11:05:10;102826.16;;;6.94;85.35
38466;BME280;24244;51.950;5.902;2024-01-25T11:07:42;102821.34;;;6.99;85.55
38466;BME280;24244;51.950;5.902;2024-01-25T11:10:14;102825.59;;;7.02;85.49
38466;BME280;24244;51.950;5.902;2024-01-25T11:12:51;102832.31;;;7.06;85.42
38466;BME280;24244;51.950;5.902;2024-01-25T11:15:23;102822.38;;;7.10;85.62
38466;BME280;24244;51.950;5.902;2024-01-25T11:17:59;102821.06;;;7.15;85.38
38466;BME280;24244;51.950;5.902;2024-01-25T11:20:30;102819.88;;;7.19;85.41
38466;BME280;24244;51.950;5.902;2024-01-25T11:23:01;102816.91;;;7.24;85.53
38466;BME280;24244;51.950;5.902;2024-01-25T11:25:29;102801.53;;;7.29;85.55
38466;BME280;24244;51.950;5.902;2024-01-25T11:27:59;102788.91;;;7.32;85.40
38466;BME280;24244;51.950;5.902;2024-01-25T11:30:32;102783.28;;;7.37;85.65
38466;BME280;24244;51.950;5.902;2024-01-25T11:33:00;102781.25;;;7.40;85.61
38466;BME280;24244;51.950;5.902;2024-01-25T11:35:27;102774.78;;;7.44;85.64
38466;BME280;24244;51.950;5.902;2024-01-25T11:38:02;102775.38;;;7.48;85.31
38466;BME280;24244;51.950;5.902;2024-01-25T11:40:29;102775.84;;;7.53;85.54
38466;BME280;24244;51.950;5.902;2024-01-25T11:43:06;102790.56;;;7.57;85.57
38466;BME280;24244;51.950;5.902;2024-01-25T11:45:39;102805.22;;;7.61;85.67
38466;BME280;24244;51.950;5.902;2024-01-25T11:48:10;102796.09;;;7.65;85.48
38466;BME280;24244;51.950;5.902;2024-01-25T11:50:38;102788.75;;;7.69;85.19
38466;BME280;24244;51.950;5.902;2024-01-25T11:53:06;102774.34;;;7.73;85.36
38466;BME280;24244;51.950;5.902;2024-01-25T11:55:33;102754.59;;;7.77;85.37
38466;BME280;24244;51.950;5.902;2024-01-25T11:58:00;102757.88;;;7.80;85.37
38466;BME280;24244;51.950;5.902;2024-01-25T12:00:30;102766.41;;;7.84;85.24
38466;BME280;24244;51.950;5.902;2024-01-25T12:02:58;102756.44;;;7.88;85.18
38466;BME280;24244;51.950;5.902;2024-01-25T12:05:25;102757.03;;;7.91;85.31
38466;BME280;24244;51.950;5.902;2024-01-25T12:07:53;102766.53;;;7.94;85.34
38466;BME280;24244;51.950;5.902;2024-01-25T12:10:23;102761.84;;;7.97;85.10
38466;BME280;24244;51.950;5.902;2024-01-25T12:12:52;102751.00;;;8.00;85.48
38466;BME280;24244;51.950;5.902;2024-01-25T12:15:20;102741.00;;;8.04;85.16
38466;BME280;24244;51.950;5.902;2024-01-25T12:17:48;102726.81;;;8.05;85.10
38466;BME280;24244;51.950;5.902;2024-01-25T12:22:52;102721.00;;;8.11;85.31
38466;BME280;24244;51.950;5.902;2024-01-25T12:25:19;102719.09;;;8.13;85.33
38466;BME280;24244;51.950;5.902;2024-01-25T12:27:47;102716.34;;;8.14;85.36
38466;BME280;24244;51.950;5.902;2024-01-25T12:30:17;102723.06;;;8.18;85.31
38466;BME280;24244;51.950;5.902;2024-01-25T12:32:44;102720.41;;;8.18;85.31
38466;BME280;24244;51.950;5.902;2024-01-25T12:35:15;102722.81;;;8.21;85.46
38466;BME280;24244;51.950;5.902;2024-01-25T12:37:42;102721.75;;;8.24;85.14
38466;BME280;24244;51.950;5.902;2024-01-25T12:40:10;102711.72;;;8.27;85.25
38466;BME280;24244;51.950;5.902;2024-01-25T12:42:38;102708.13;;;8.29;85.00
38466;BME280;24244;51.950;5.902;2024-01-25T12:45:05;102688.63;;;8.30;85.12
38466;BME280;24244;51.950;5.902;2024-01-25T12:47:34;102706.94;;;8.33;85.04
38466;BME280;24244;51.950;5.902;2024-01-25T12:50:01;102703.09;;;8.37;85.10
38466;BME280;24244;51.950;5.902;2024-01-25T12:52:31;102697.41;;;8.41;84.98
38466;BME280;24244;51.950;5.902;2024-01-25T12:54:58;102704.28;;;8.44;85.09
38466;BME280;24244;51.950;5.902;2024-01-25T12:57:25;102697.75;;;8.48;84.86
38466;BME280;24244;51.950;5.902;2024-01-25T12:59:52;102690.41;;;8.51;84.92
38466;BME280;24244;51.950;5.902;2024-01-25T13:02:19;102704.09;;;8.56;84.93
38466;BME280;24244;51.950;5.902;2024-01-25T13:04:46;102694.22;;;8.58;84.91
38466;BME280;24244;51.950;5.902;2024-01-25T13:09:49;102692.03;;;8.63;84.93
38466;BME280;24244;51.950;5.902;2024-01-25T13:17:48;102677.31;;;8.71;84.89